Bothwell, Utah
Current Conditions -  °F | °C
As of 3:55 AM on Wednesday 22 Oct 2014 (Local Time) from KBMC Reporting Station
Clear Clear  
Wind Chill: 37°   Ceiling: Unl
Heat Index: 37°   Visibility: 10mi
Dew Point: 29°   Wind: 3mph
Humidity: 74%   Direction: 330°NNW
Pressure: 30.13"   Gusts: NA
Location:  41.6836°N, 112.26°W
Report Text: KBMC 220955Z AUTO 33003KT 10SM CLR 03/M01 A3013 RMK AO1 T00281014
Loading
Personal Weather Stations






























Interactive Weather Map
Tropical Storm Tracking
New forecast layout! Learn more

10-Day Weather Forecast

Advertisements
Track Severe Weather on mobile